Time;durP1;ratioP1;P1;durP2;ratioP2;P2;SDS_P1;SDS_P2;PMS_P1;PMS_P2;Temp;Humidity;BMP_temperature;BMP_pressure;BME280_temperature;BME280_humidity;BME280_pressure;Samples;Min_cycle;Max_cycle;Signal;HPM_P1;HPM_P2
2022/07/10 00:00:17;;;;;;;3.85;2.10;;;20.30;62.20;;;;;;5095311;28;20040;-64
2022/07/10 00:02:43;;;;;;;2.78;1.95;;;20.30;62.00;;;;;;5093784;28;20040;-64
2022/07/10 00:05:10;;;;;;;2.20;1.98;;;20.20;62.00;;;;;;5096968;28;20455;-64
2022/07/10 00:07:36;;;;;;;2.00;1.80;;;20.20;62.30;;;;;;5096984;28;20023;-63
2022/07/10 00:10:02;;;;;;;2.00;1.80;;;20.20;62.40;;;;;;5097018;28;20027;-63
2022/07/10 00:12:28;;;;;;;2.58;2.20;;;20.20;62.50;;;;;;5094680;27;20042;-64
2022/07/10 00:14:53;;;;;;;2.92;1.73;;;20.20;62.40;;;;;;5095569;28;20028;-63
2022/07/10 00:17:19;;;;;;;2.00;1.90;;;20.20;62.50;;;;;;5095946;28;20040;-64
2022/07/10 00:19:45;;;;;;;2.15;2.03;;;20.20;62.60;;;;;;5095896;28;20084;-64
2022/07/10 00:22:10;;;;;;;4.55;2.15;;;20.20;62.60;;;;;;5096624;28;20067;-64
2022/07/10 00:24:36;;;;;;;2.20;1.98;;;20.10;62.40;;;;;;5097492;28;20039;-64
2022/07/10 00:27:02;;;;;;;2.42;1.88;;;20.10;62.40;;;;;;5094972;28;20057;-64
2022/07/10 00:29:28;;;;;;;2.38;1.80;;;20.10;62.70;;;;;;5095147;28;20026;-63
2022/07/10 00:31:53;;;;;;;1.88;1.77;;;20.00;63.10;;;;;;5097202;28;20034;-64
2022/07/10 00:34:19;;;;;;;3.47;1.98;;;20.00;63.10;;;;;;5097614;28;20086;-63
2022/07/10 00:36:45;;;;;;;1.90;1.80;;;20.00;63.20;;;;;;5097488;28;20040;-63
2022/07/10 00:39:10;;;;;;;1.95;1.80;;;20.10;63.40;;;;;;5095447;28;20031;-64
2022/07/10 00:41:36;;;;;;;4.53;2.03;;;20.10;63.60;;;;;;5096102;28;20035;-63
2022/07/10 00:44:03;;;;;;;2.38;2.17;;;20.10;63.40;;;;;;5097319;28;20028;-64
2022/07/10 00:46:30;;;;;;;2.20;2.10;;;20.00;63.30;;;;;;5095124;28;20904;-63
2022/07/10 00:48:56;;;;;;;2.05;1.95;;;20.00;63.60;;;;;;5095908;28;20035;-64
2022/07/10 00:51:26;;;;;;;1.70;1.60;;;19.90;63.80;;;;;;5095303;28;20516;-64
2022/07/10 00:53:52;;;;;;;2.38;2.00;;;19.90;64.30;;;;;;5094377;28;20040;-63
2022/07/10 00:56:23;;;;;;;2.25;2.08;;;19.80;64.00;;;;;;5094909;28;20066;-63
2022/07/10 00:58:50;;;;;;;2.28;2.08;;;19.70;64.30;;;;;;5093827;28;20067;-64
2022/07/10 01:01:16;;;;;;;2.20;1.95;;;19.60;63.90;;;;;;5094041;28;20301;-63
2022/07/10 01:03:43;;;;;;;2.72;2.42;;;19.60;64.10;;;;;;5096239;28;20035;-64
2022/07/10 01:06:09;;;;;;;2.05;1.95;;;19.50;64.60;;;;;;5094447;28;21015;-64
2022/07/10 01:08:35;;;;;;;2.10;1.95;;;19.50;65.00;;;;;;5096021;28;20124;-64
2022/07/10 01:11:01;;;;;;;3.20;2.50;;;19.50;65.20;;;;;;5092538;28;20035;-64
2022/07/10 01:13:28;;;;;;;3.90;2.35;;;19.50;65.50;;;;;;5096509;28;20458;-62
2022/07/10 01:15:54;;;;;;;3.60;2.13;;;19.40;65.30;;;;;;5094985;28;20019;-64
2022/07/10 01:18:20;;;;;;;2.30;2.20;;;19.50;65.30;;;;;;5094850;28;20031;-63
2022/07/10 01:20:45;;;;;;;2.63;2.20;;;19.50;65.20;;;;;;5094997;28;20031;-64
2022/07/10 01:23:11;;;;;;;2.08;1.98;;;19.40;64.90;;;;;;5082455;28;20035;-62
2022/07/10 01:25:37;;;;;;;3.40;2.25;;;19.50;65.00;;;;;;5094906;27;20035;-63
2022/07/10 01:28:03;;;;;;;2.38;2.17;;;19.50;65.30;;;;;;5096545;28;20118;-64
2022/07/10 01:30:29;;;;;;;3.35;2.30;;;19.40;65.30;;;;;;5095126;28;20070;-63
2022/07/10 01:32:54;;;;;;;2.63;2.28;;;19.40;65.40;;;;;;5095880;28;20123;-63
2022/07/10 01:35:20;;;;;;;2.67;2.47;;;19.50;65.40;;;;;;5096819;28;20514;-63
2022/07/10 01:37:46;;;;;;;2.40;2.30;;;19.50;65.50;;;;;;5078570;28;20122;-64
2022/07/10 01:40:12;;;;;;;2.30;2.10;;;19.50;65.50;;;;;;5096753;28;20036;-64
2022/07/10 01:42:40;;;;;;;2.35;2.15;;;19.40;65.50;;;;;;5096343;28;20048;-61
2022/07/10 01:45:08;;;;;;;2.58;2.38;;;19.50;66.00;;;;;;5095995;28;20035;-64
2022/07/10 01:47:34;;;;;;;2.92;2.22;;;19.40;65.90;;;;;;5095797;28;20034;-64
2022/07/10 01:50:00;;;;;;;2.20;2.10;;;19.40;65.90;;;;;;5095396;28;20040;-63
2022/07/10 01:52:25;;;;;;;2.53;2.40;;;19.40;65.90;;;;;;5092591;28;20054;-64
2022/07/10 01:54:51;;;;;;;2.35;2.15;;;19.40;66.10;;;;;;5094911;28;20036;-63
2022/07/10 01:57:17;;;;;;;3.38;2.65;;;19.40;66.40;;;;;;5093337;28;20753;-62
2022/07/10 01:59:43;;;;;;;2.70;2.50;;;19.30;67.00;;;;;;5094695;28;20044;-62
2022/07/10 02:02:09;;;;;;;2.85;2.65;;;19.30;66.40;;;;;;5094340;28;20441;-64
2022/07/10 02:04:40;;;;;;;2.53;2.33;;;19.20;66.40;;;;;;5094441;28;20491;-62
2022/07/10 02:07:10;;;;;;;3.53;2.45;;;19.20;66.40;;;;;;5094224;28;20024;-64
2022/07/10 02:09:37;;;;;;;3.17;2.88;;;19.20;66.60;;;;;;5095178;28;20031;-63
2022/07/10 02:12:03;;;;;;;2.50;2.30;;;19.20;66.60;;;;;;5091730;28;20112;-64
2022/07/10 02:14:28;;;;;;;2.58;2.40;;;19.10;66.70;;;;;;5095822;28;20028;-63
2022/07/10 02:16:55;;;;;;;2.65;2.45;;;19.10;66.90;;;;;;5093773;28;20493;-64
2022/07/10 02:19:21;;;;;;;3.33;2.60;;;19.10;67.00;;;;;;5094227;28;20028;-64
2022/07/10 02:21:46;;;;;;;2.88;2.60;;;19.10;67.30;;;;;;5098404;28;20032;-63
2022/07/10 02:24:12;;;;;;;2.25;2.13;;;19.10;67.80;;;;;;5098778;28;20131;-63
2022/07/10 02:26:38;;;;;;;2.53;2.22;;;19.10;67.60;;;;;;5097837;28;20032;-64
2022/07/10 02:29:03;;;;;;;2.42;2.22;;;19.10;67.60;;;;;;5098795;28;20073;-64
2022/07/10 02:31:29;;;;;;;2.50;2.30;;;19.10;67.60;;;;;;5100296;28;21430;-63
2022/07/10 02:33:55;;;;;;;2.20;2.10;;;19.10;67.60;;;;;;5098360;28;20539;-63
2022/07/10 02:36:20;;;;;;;2.50;2.30;;;19.00;67.70;;;;;;5098533;28;20035;-63
2022/07/10 02:38:46;;;;;;;2.45;2.25;;;19.00;67.60;;;;;;5097432;28;20039;-64
2022/07/10 02:41:12;;;;;;;2.63;2.42;;;19.00;67.60;;;;;;5097139;28;20038;-63
2022/07/10 02:43:37;;;;;;;2.72;2.53;;;19.00;67.80;;;;;;5096656;28;21006;-63
2022/07/10 02:46:03;;;;;;;2.95;2.67;;;19.00;67.80;;;;;;5098857;28;20085;-63
2022/07/10 02:48:29;;;;;;;5.57;2.38;;;19.00;67.50;;;;;;5098791;28;20510;-63
2022/07/10 02:50:55;;;;;;;3.20;2.80;;;19.00;67.40;;;;;;5097876;28;20695;-64
2022/07/10 02:53:20;;;;;;;2.90;2.70;;;18.90;68.20;;;;;;5096553;28;20051;-64
2022/07/10 02:55:46;;;;;;;2.38;2.22;;;18.90;67.50;;;;;;5098940;28;20486;-64
2022/07/10 02:58:12;;;;;;;2.55;2.35;;;18.80;67.70;;;;;;5097227;27;20040;-63
2022/07/10 03:00:38;;;;;;;3.00;2.70;;;18.80;67.80;;;;;;5097472;28;20050;-63
2022/07/10 03:03:03;;;;;;;2.50;2.30;;;18.70;68.00;;;;;;5098909;28;20036;-64
2022/07/10 03:05:29;;;;;;;2.75;2.55;;;18.70;68.00;;;;;;5097243;28;20047;-63
2022/07/10 03:07:55;;;;;;;2.85;2.60;;;18.60;68.10;;;;;;5097270;28;20221;-64
2022/07/10 03:10:20;;;;;;;2.75;2.55;;;18.60;68.50;;;;;;5096829;28;20133;-63
2022/07/10 03:12:46;;;;;;;2.83;2.63;;;18.50;68.50;;;;;;5096730;27;20039;-64
2022/07/10 03:15:13;;;;;;;3.50;2.70;;;18.50;68.70;;;;;;5097909;28;20028;-63
2022/07/10 03:17:39;;;;;;;2.83;2.63;;;18.50;68.80;;;;;;5099877;28;20035;-63
2022/07/10 03:20:06;;;;;;;2.80;2.58;;;18.40;68.80;;;;;;5096910;28;20035;-63
2022/07/10 03:22:32;;;;;;;2.95;2.75;;;18.30;69.00;;;;;;5098003;27;20712;-64
2022/07/10 03:24:58;;;;;;;2.70;2.53;;;18.30;69.20;;;;;;5094604;27;20189;-64
2022/07/10 03:27:24;;;;;;;3.00;2.80;;;18.20;69.10;;;;;;5099090;28;20119;-64
2022/07/10 03:29:49;;;;;;;3.38;2.88;;;18.20;69.20;;;;;;5099242;28;20036;-63
2022/07/10 03:32:15;;;;;;;2.92;2.72;;;18.10;69.40;;;;;;5098776;28;20031;-64
2022/07/10 03:34:41;;;;;;;3.13;2.92;;;18.10;69.50;;;;;;5097562;28;20040;-64
2022/07/10 03:37:06;;;;;;;3.47;3.08;;;18.10;69.50;;;;;;5096929;28;20039;-64
2022/07/10 03:39:32;;;;;;;3.58;3.28;;;18.00;69.50;;;;;;5095204;28;20458;-64
2022/07/10 03:41:58;;;;;;;3.40;3.10;;;18.00;69.60;;;;;;5098244;28;20028;-63
2022/07/10 03:44:24;;;;;;;3.20;2.97;;;17.90;69.50;;;;;;5096765;28;20050;-63
2022/07/10 03:46:49;;;;;;;3.15;2.90;;;17.90;69.50;;;;;;5096993;28;20027;-64
2022/07/10 03:49:15;;;;;;;3.58;3.28;;;17.90;69.60;;;;;;5096970;28;20409;-63
2022/07/10 03:51:41;;;;;;;4.03;3.10;;;17.90;69.50;;;;;;5095329;28;20039;-64
2022/07/10 03:54:07;;;;;;;3.40;3.20;;;17.90;69.50;;;;;;5096957;27;20127;-64
2022/07/10 03:59:17;;;;;;;2.90;2.70;;;17.80;69.50;;;;;;5094989;28;20092;-64
2022/07/10 04:01:42;;;;;;;3.45;3.08;;;17.80;69.60;;;;;;5098095;28;20032;-63
2022/07/10 04:04:08;;;;;;;3.30;3.00;;;17.80;69.50;;;;;;5098437;28;20495;-64
2022/07/10 04:06:34;;;;;;;3.20;3.00;;;17.80;69.50;;;;;;5094163;28;20040;-63
2022/07/10 04:08:59;;;;;;;3.45;3.25;;;17.90;69.50;;;;;;5096642;28;20055;-64
2022/07/10 04:11:25;;;;;;;3.55;3.25;;;17.80;69.60;;;;;;5092837;27;20407;-64
2022/07/10 04:13:51;;;;;;;3.25;2.95;;;17.80;69.50;;;;;;5094699;28;20617;-64
2022/07/10 04:16:16;;;;;;;3.30;3.10;;;17.80;69.40;;;;;;5097543;28;20042;-63
2022/07/10 04:18:42;;;;;;;3.78;3.35;;;17.80;69.60;;;;;;5094589;28;20074;-62
2022/07/10 04:21:08;;;;;;;3.20;2.95;;;17.80;69.60;;;;;;5093945;28;20024;-63
2022/07/10 04:23:34;;;;;;;3.33;3.08;;;17.80;69.70;;;;;;5097143;28;20024;-64
2022/07/10 04:26:00;;;;;;;3.85;3.08;;;17.80;69.80;;;;;;5095273;28;20510;-63
2022/07/10 04:28:26;;;;;;;3.42;3.13;;;17.80;69.80;;;;;;5095775;28;20672;-63
2022/07/10 04:30:51;;;;;;;3.70;3.35;;;17.80;70.00;;;;;;5096436;28;20032;-63
2022/07/10 04:33:17;;;;;;;5.35;3.50;;;17.80;70.00;;;;;;5096106;28;20541;-63
2022/07/10 04:35:43;;;;;;;5.72;3.35;;;17.80;70.00;;;;;;5095208;28;20492;-63
2022/07/10 04:38:09;;;;;;;3.75;3.38;;;17.80;70.10;;;;;;5095417;28;20506;-64
2022/07/10 04:40:34;;;;;;;5.45;3.60;;;17.80;70.20;;;;;;5093926;28;20032;-63
2022/07/10 04:43:00;;;;;;;3.90;3.60;;;17.70;71.30;;;;;;5097063;28;20040;-63
2022/07/10 04:45:26;;;;;;;4.20;3.67;;;17.70;70.60;;;;;;5093880;28;20573;-63
2022/07/10 04:47:51;;;;;;;4.90;4.18;;;17.70;70.70;;;;;;5097241;28;20459;-64
2022/07/10 04:50:17;;;;;;;4.97;4.40;;;17.70;70.70;;;;;;5096651;28;20491;-63
2022/07/10 04:52:43;;;;;;;4.82;4.43;;;17.80;70.90;;;;;;5093801;28;20019;-62
2022/07/10 04:55:09;;;;;;;5.30;4.50;;;17.80;70.80;;;;;;5095736;28;20438;-62
2022/07/10 04:57:35;;;;;;;4.35;3.97;;;17.80;70.70;;;;;;5093520;28;20063;-63
2022/07/10 05:00:00;;;;;;;4.60;4.20;;;17.80;70.80;;;;;;5097753;28;20081;-63
2022/07/10 05:02:26;;;;;;;4.30;4.00;;;17.80;70.60;;;;;;5094116;28;20036;-63
2022/07/10 05:04:52;;;;;;;4.60;4.30;;;17.80;70.50;;;;;;5094711;28;20036;-63
2022/07/10 05:07:17;;;;;;;4.68;4.20;;;17.80;70.60;;;;;;5094398;28;20669;-64
2022/07/10 05:09:43;;;;;;;4.97;4.60;;;17.80;70.70;;;;;;5094290;28;20032;-63
2022/07/10 05:12:09;;;;;;;6.10;4.30;;;17.80;70.60;;;;;;5095957;28;20089;-63
2022/07/10 05:14:34;;;;;;;4.47;4.18;;;17.80;70.70;;;;;;5093753;28;20036;-64
2022/07/10 05:17:00;;;;;;;4.90;4.50;;;17.80;70.80;;;;;;5094709;28;20044;-64
2022/07/10 05:19:25;;;;;;;4.95;4.53;;;17.80;70.90;;;;;;5095656;28;20044;-63
2022/07/10 05:21:51;;;;;;;5.60;5.00;;;17.80;70.90;;;;;;5096477;28;20550;-64
2022/07/10 05:24:17;;;;;;;5.10;4.57;;;17.90;71.00;;;;;;5095060;28;20027;-63
2022/07/10 05:26:42;;;;;;;5.50;4.90;;;17.90;71.10;;;;;;5076583;28;20043;-63
2022/07/10 05:29:08;;;;;;;5.35;4.85;;;17.90;71.10;;;;;;5095474;28;20030;-61
2022/07/10 05:31:33;;;;;;;5.90;4.75;;;18.00;71.20;;;;;;5095563;28;20118;-63
2022/07/10 05:33:59;;;;;;;5.80;5.30;;;18.00;71.30;;;;;;5097064;28;20054;-62
2022/07/10 05:36:25;;;;;;;5.82;4.47;;;18.00;71.20;;;;;;5094035;28;20394;-63
2022/07/10 05:38:51;;;;;;;5.63;4.63;;;18.10;71.10;;;;;;5097277;28;20416;-64
2022/07/10 05:41:16;;;;;;;5.13;4.40;;;18.20;71.10;;;;;;5093204;28;20036;-63
2022/07/10 05:43:42;;;;;;;4.70;4.30;;;18.30;71.40;;;;;;5096908;28;20476;-64
2022/07/10 05:46:08;;;;;;;5.50;4.97;;;18.40;70.90;;;;;;5096763;28;20170;-64
2022/07/10 05:48:33;;;;;;;5.13;4.63;;;18.40;70.60;;;;;;5095926;28;20024;-64
2022/07/10 05:50:59;;;;;;;6.50;4.90;;;18.50;70.50;;;;;;5097976;28;20028;-63
2022/07/10 05:53:25;;;;;;;5.43;4.93;;;18.50;70.20;;;;;;5097201;28;20069;-64
2022/07/10 05:55:50;;;;;;;5.68;4.60;;;18.60;70.00;;;;;;5097641;28;20407;-62
2022/07/10 05:58:16;;;;;;;5.25;4.75;;;18.60;70.00;;;;;;5101376;28;20028;-63
2022/07/10 06:00:45;;;;;;;4.80;4.40;;;18.70;69.90;;;;;;5100064;28;20040;-63
2022/07/10 06:03:11;;;;;;;5.40;4.90;;;18.70;69.70;;;;;;5099747;28;20044;-63
2022/07/10 06:05:37;;;;;;;5.22;4.65;;;18.70;69.70;;;;;;5099800;28;20027;-64
2022/07/10 06:08:04;;;;;;;5.93;4.53;;;18.70;69.70;;;;;;5101540;28;20051;-63
2022/07/10 06:10:29;;;;;;;4.72;4.35;;;18.70;70.00;;;;;;5104480;27;20035;-64
2022/07/10 06:12:55;;;;;;;5.40;4.40;;;18.70;70.30;;;;;;5097690;27;20479;-64
2022/07/10 06:15:20;;;;;;;6.70;5.35;;;18.70;70.60;;;;;;5097125;28;20055;-64
2022/07/10 06:17:46;;;;;;;6.00;5.40;;;18.70;70.40;;;;;;5098182;28;20036;-64
2022/07/10 06:20:12;;;;;;;7.75;6.95;;;18.70;70.10;;;;;;5099832;28;20220;-62
2022/07/10 06:22:39;;;;;;;8.02;7.22;;;18.70;70.00;;;;;;5096539;27;20184;-64
2022/07/10 06:25:07;;;;;;;6.68;5.97;;;18.70;70.00;;;;;;5097800;27;20055;-64
2022/07/10 06:27:33;;;;;;;5.47;5.00;;;18.70;69.60;;;;;;5098114;28;20031;-64
2022/07/10 06:29:59;;;;;;;5.20;4.75;;;18.70;69.40;;;;;;5098047;28;20596;-65
2022/07/10 06:32:25;;;;;;;4.88;4.32;;;18.70;69.30;;;;;;5095967;27;20237;-64
2022/07/10 06:34:55;;;;;;;5.05;4.55;;;18.70;69.40;;;;;;5083052;28;20306;-64
2022/07/10 06:37:21;;;;;;;5.15;4.65;;;18.70;69.50;;;;;;5082810;28;20044;-65
2022/07/10 06:39:50;;;;;;;6.70;4.28;;;18.80;69.20;;;;;;5099310;28;20131;-65
2022/07/10 06:42:16;;;;;;;4.63;4.22;;;18.80;69.30;;;;;;5097074;28;20123;-64
2022/07/10 06:44:43;;;;;;;4.55;4.15;;;18.80;69.20;;;;;;5079615;27;20028;-63
2022/07/10 06:49:54;;;;;;;5.13;3.35;;;18.90;69.00;;;;;;5098145;28;20430;-65
2022/07/10 06:52:21;;;;;;;3.63;3.22;;;19.00;68.80;;;;;;5098231;28;20653;-63
2022/07/10 06:54:47;;;;;;;3.40;3.17;;;19.10;68.60;;;;;;5097315;28;20043;-63
2022/07/10 06:57:13;;;;;;;4.43;3.13;;;19.20;67.80;;;;;;5097676;28;20049;-64
2022/07/10 06:59:38;;;;;;;3.22;2.90;;;19.30;67.30;;;;;;5098256;28;20127;-64
2022/07/10 07:02:04;;;;;;;4.07;3.20;;;19.30;66.80;;;;;;5095436;27;20118;-64
2022/07/10 07:04:30;;;;;;;3.28;2.97;;;19.40;66.70;;;;;;5096663;28;20085;-64
2022/07/10 07:06:55;;;;;;;4.55;3.58;;;19.40;66.90;;;;;;5098927;28;20028;-65
2022/07/10 07:09:21;;;;;;;3.60;3.30;;;19.40;66.60;;;;;;5098716;28;20043;-64
2022/07/10 07:11:47;;;;;;;3.78;3.30;;;19.40;66.20;;;;;;5098505;28;20127;-64
2022/07/10 07:14:13;;;;;;;3.42;3.05;;;19.40;65.90;;;;;;5096937;27;20063;-65
2022/07/10 07:16:42;;;;;;;3.30;2.78;;;19.50;66.00;;;;;;5099113;28;20065;-63
2022/07/10 07:19:10;;;;;;;5.43;2.83;;;19.50;65.90;;;;;;5098322;28;20044;-65
2022/07/10 07:24:20;;;;;;;2.65;2.40;;;19.50;64.90;;;;;;5097330;28;20038;-63
2022/07/10 07:26:49;;;;;;;2.63;2.20;;;19.60;65.20;;;;;;5097695;28;20040;-65
2022/07/10 07:29:16;;;;;;;3.30;2.25;;;19.60;64.90;;;;;;5084449;28;20149;-63
2022/07/10 07:31:42;;;;;;;2.58;2.22;;;19.70;64.30;;;;;;5075333;28;20097;-64
2022/07/10 07:34:07;;;;;;;2.63;2.22;;;19.70;63.70;;;;;;5091990;27;20917;-63
2022/07/10 07:36:33;;;;;;;5.28;1.95;;;19.70;63.60;;;;;;5093355;28;20101;-64
2022/07/10 07:38:59;;;;;;;2.30;2.10;;;19.80;62.70;;;;;;5097065;27;20447;-65
2022/07/10 07:41:25;;;;;;;1.70;1.60;;;19.70;62.00;;;;;;5096961;27;20150;-64
2022/07/10 07:43:52;;;;;;;2.25;1.98;;;19.70;62.40;;;;;;5093355;27;20034;-64
2022/07/10 07:46:18;;;;;;;1.63;1.52;;;19.70;62.40;;;;;;5093316;27;20163;-65
2022/07/10 07:48:43;;;;;;;2.45;1.95;;;19.80;62.40;;;;;;5091140;27;20043;-65
2022/07/10 07:51:09;;;;;;;2.47;2.00;;;19.80;61.90;;;;;;5093929;27;20114;-65
2022/07/10 07:53:34;;;;;;;3.92;2.05;;;19.80;61.90;;;;;;5096873;27;20507;-64
2022/07/10 07:56:00;;;;;;;4.88;1.90;;;19.80;62.10;;;;;;5096913;27;20043;-64
2022/07/10 07:58:26;;;;;;;2.42;1.80;;;19.80;62.30;;;;;;5091698;27;20574;-65
2022/07/10 08:00:51;;;;;;;2.67;1.80;;;19.70;62.90;;;;;;5097137;27;20145;-63
2022/07/10 08:03:17;;;;;;;2.88;2.20;;;19.70;62.60;;;;;;5095601;27;20577;-64
2022/07/10 08:05:43;;;;;;;4.75;2.15;;;19.70;63.20;;;;;;5096495;27;20028;-64
2022/07/10 08:08:09;;;;;;;1.83;1.73;;;19.80;63.10;;;;;;5095187;27;20596;-64
2022/07/10 08:10:36;;;;;;;3.13;1.80;;;19.90;63.00;;;;;;5088698;28;20058;-62
2022/07/10 08:13:03;;;;;;;2.95;1.40;;;19.90;62.80;;;;;;5098338;27;20059;-64
2022/07/10 08:15:29;;;;;;;2.42;1.70;;;20.00;61.10;;;;;;5096085;27;20407;-65
2022/07/10 08:17:56;;;;;;;2.22;1.40;;;20.00;59.60;;;;;;5096004;27;20609;-63
2022/07/10 08:20:24;;;;;;;2.15;1.45;;;20.10;58.70;;;;;;5091950;28;20043;-63
2022/07/10 08:22:51;;;;;;;3.63;1.30;;;20.10;59.30;;;;;;5093243;27;20393;-62
2022/07/10 08:25:17;;;;;;;2.47;1.52;;;20.00;59.40;;;;;;5094053;28;20087;-64
2022/07/10 08:27:43;;;;;;;2.40;1.52;;;20.00;59.20;;;;;;5095323;27;20229;-63
2022/07/10 08:30:09;;;;;;;3.08;1.35;;;20.00;57.80;;;;;;5094339;27;20039;-63
2022/07/10 08:32:36;;;;;;;1.65;1.30;;;20.10;57.80;;;;;;5094368;27;20028;-65
2022/07/10 08:35:03;;;;;;;2.22;1.38;;;20.20;57.50;;;;;;5093452;27;20071;-64
2022/07/10 08:37:28;;;;;;;1.67;1.17;;;20.30;57.50;;;;;;5096131;27;20032;-64
2022/07/10 08:39:54;;;;;;;1.98;1.17;;;20.40;57.50;;;;;;5092050;27;20028;-63
2022/07/10 08:42:21;;;;;;;3.67;1.40;;;20.50;57.60;;;;;;5094997;27;20499;-62
2022/07/10 08:44:46;;;;;;;2.72;1.20;;;20.60;56.80;;;;;;5095778;28;20431;-64
2022/07/10 08:47:13;;;;;;;2.03;1.42;;;20.50;55.80;;;;;;5093235;27;20061;-63
2022/07/10 08:49:47;;;;;;;1.52;1.15;;;20.50;56.10;;;;;;5094661;28;20072;-65
2022/07/10 08:52:26;;;;;;;1.08;0.98;;;20.50;56.30;;;;;;5095202;27;20126;-64
2022/07/10 08:54:52;;;;;;;2.20;1.40;;;20.50;57.00;;;;;;5092811;27;21952;-64
2022/07/10 08:57:18;;;;;;;1.88;1.30;;;20.50;57.00;;;;;;5091581;28;20048;-65
2022/07/10 08:59:44;;;;;;;1.23;1.13;;;20.50;56.20;;;;;;5093141;28;20036;-64
2022/07/10 09:02:09;;;;;;;1.58;1.08;;;20.50;56.60;;;;;;5092829;27;20036;-66
2022/07/10 09:04:35;;;;;;;1.20;1.08;;;20.50;56.70;;;;;;5095755;27;20028;-64
2022/07/10 09:07:01;;;;;;;1.30;1.10;;;20.60;56.70;;;;;;5091973;27;20039;-66
2022/07/10 09:09:27;;;;;;;1.02;0.93;;;20.60;56.10;;;;;;5090300;28;20044;-64
2022/07/10 09:11:57;;;;;;;4.72;1.25;;;20.70;55.10;;;;;;5091756;27;20486;-64
2022/07/10 09:14:25;;;;;;;1.13;0.85;;;20.80;53.90;;;;;;5094145;27;20032;-65
2022/07/10 09:16:51;;;;;;;1.95;0.98;;;21.00;54.60;;;;;;5089375;28;20142;-64
2022/07/10 09:19:21;;;;;;;1.60;0.98;;;21.00;54.30;;;;;;5087849;28;20036;-66
2022/07/10 09:21:59;;;;;;;1.73;1.10;;;21.00;53.50;;;;;;5087896;28;20089;-61
2022/07/10 09:24:25;;;;;;;1.17;1.00;;;20.90;53.90;;;;;;5086831;27;20035;-61
2022/07/10 09:26:54;;;;;;;1.20;1.00;;;20.80;54.00;;;;;;5090875;28;20035;-61
2022/07/10 09:29:19;;;;;;;1.58;0.80;;;20.70;54.40;;;;;;5090741;27;20035;-64
2022/07/10 09:31:56;;;;;;;1.33;0.90;;;20.70;54.40;;;;;;5094780;28;20111;-65
2022/07/10 09:34:47;;;;;;;1.48;1.00;;;20.70;54.60;;;;;;5088896;28;20093;-64
2022/07/10 09:37:18;;;;;;;2.75;1.35;;;20.70;54.30;;;;;;5092122;28;20036;-66
2022/07/10 09:40:03;;;;;;;2.78;1.30;;;20.80;53.70;;;;;;5094263;28;20036;-65
2022/07/10 09:42:29;;;;;;;2.25;1.00;;;20.90;53.50;;;;;;5093257;28;20036;-65
2022/07/10 09:45:11;;;;;;;1.85;1.02;;;21.00;54.20;;;;;;5091883;28;20179;-64
2022/07/10 09:47:41;;;;;;;3.08;1.10;;;21.10;53.80;;;;;;5092102;28;20502;-66
2022/07/10 09:50:25;;;;;;;1.67;1.10;;;21.20;53.20;;;;;;5088417;28;20040;-65
2022/07/10 09:53:02;;;;;;;4.57;1.00;;;21.20;52.90;;;;;;5092469;28;20032;-66
2022/07/10 09:55:30;;;;;;;1.48;0.90;;;21.20;53.30;;;;;;5089139;28;20053;-64
2022/07/10 09:58:04;;;;;;;2.60;1.20;;;21.30;54.00;;;;;;5098192;28;20029;-62
2022/07/10 10:00:35;;;;;;;2.05;1.00;;;21.40;53.00;;;;;;5096568;28;20035;-64
2022/07/10 10:03:05;;;;;;;3.30;1.20;;;21.50;53.40;;;;;;5098057;28;20047;-65
2022/07/10 10:05:53;;;;;;;1.83;1.10;;;21.50;52.90;;;;;;5096769;28;20043;-64
2022/07/10 10:08:28;;;;;;;1.67;1.10;;;21.50;52.50;;;;;;5098233;28;20063;-64
2022/07/10 10:10:57;;;;;;;3.03;0.82;;;21.60;52.50;;;;;;5096231;28;20036;-64
2022/07/10 10:13:27;;;;;;;2.65;1.23;;;21.60;52.90;;;;;;5097402;28;20303;-64
2022/07/10 10:15:53;;;;;;;1.02;1.00;;;21.60;52.30;;;;;;5096055;28;20052;-62
2022/07/10 10:18:24;;;;;;;1.80;1.05;;;21.60;52.40;;;;;;5096288;28;20074;-65
2022/07/10 10:20:51;;;;;;;3.00;0.88;;;21.70;52.30;;;;;;5094762;28;20032;-64
2022/07/10 10:23:22;;;;;;;1.60;0.90;;;21.70;52.00;;;;;;5096356;28;20036;-64
2022/07/10 10:25:56;;;;;;;1.48;1.15;;;21.70;51.80;;;;;;5094421;28;20036;-64
2022/07/10 10:28:24;;;;;;;1.13;0.90;;;21.80;51.00;;;;;;5096791;28;20093;-63
2022/07/10 10:31:00;;;;;;;1.33;0.80;;;21.80;51.30;;;;;;5097488;28;20044;-64
2022/07/10 10:33:32;;;;;;;2.10;1.10;;;21.80;50.40;;;;;;5098000;28;20031;-64
2022/07/10 10:35:59;;;;;;;1.10;0.90;;;21.80;51.60;;;;;;5097426;28;20040;-63
2022/07/10 10:38:48;;;;;;;1.10;0.85;;;21.80;51.20;;;;;;5084650;28;20518;-65
2022/07/10 10:41:24;;;;;;;2.13;1.00;;;21.80;51.00;;;;;;5094708;28;20032;-64
2022/07/10 10:44:20;;;;;;;1.35;0.70;;;21.80;50.70;;;;;;5100294;28;20038;-65
2022/07/10 10:47:01;;;;;;;;;;;21.70;50.80;;;;;;5081739;28;20039;-64
2022/07/10 10:49:47;;;;;;;1.35;0.93;;;21.80;51.60;;;;;;5100865;27;19916;-64
2022/07/10 10:52:15;;;;;;;3.38;0.90;;;21.80;51.20;;;;;;5101017;28;20063;-64
2022/07/10 10:54:56;;;;;;;1.63;0.80;;;21.80;50.90;;;;;;5098907;27;20036;-64
2022/07/10 10:57:47;;;;;;;1.60;0.80;;;21.90;50.70;;;;;;5100578;27;20096;-65
2022/07/10 11:00:16;;;;;;;2.72;0.90;;;22.00;50.50;;;;;;5099158;28;20039;-65
2022/07/10 11:02:42;;;;;;;3.00;0.80;;;22.10;50.00;;;;;;5101112;27;20050;-65
2022/07/10 11:07:55;;;;;;;2.05;0.80;;;21.90;50.00;;;;;;5100454;28;20020;-65
2022/07/10 11:10:41;;;;;;;1.38;0.70;;;22.10;51.00;;;;;;5103191;27;20124;-64
2022/07/10 11:13:17;;;;;;;1.73;0.70;;;22.00;51.40;;;;;;5100515;28;20032;-64
2022/07/10 11:15:45;;;;;;;1.10;0.93;;;22.10;49.50;;;;;;5101196;28;20056;-64
2022/07/10 11:18:12;;;;;;;1.27;0.88;;;22.20;50.20;;;;;;5097384;28;20439;-64
2022/07/10 11:20:49;;;;;;;1.00;0.90;;;22.20;49.90;;;;;;5099058;27;20399;-63
2022/07/10 11:23:36;;;;;;;0.75;0.73;;;22.20;50.00;;;;;;5097332;28;20036;-64
2022/07/10 11:26:16;;;;;;;3.05;0.80;;;22.30;49.70;;;;;;5098013;28;20032;-64
2022/07/10 11:28:53;;;;;;;2.45;0.85;;;22.30;50.60;;;;;;5097798;28;20042;-64
2022/07/10 11:31:19;;;;;;;2.75;0.82;;;22.40;49.70;;;;;;5098198;28;20399;-64
2022/07/10 11:33:51;;;;;;;1.27;1.00;;;22.40;50.60;;;;;;5099386;28;20071;-65
2022/07/10 11:36:30;;;;;;;2.30;0.88;;;22.50;49.50;;;;;;5098261;28;20058;-65
2022/07/10 11:39:01;;;;;;;0.95;0.85;;;22.60;47.70;;;;;;5097132;28;20032;-65
2022/07/10 11:41:28;;;;;;;1.55;0.85;;;22.50;48.40;;;;;;5099052;28;20127;-64
2022/07/10 11:44:01;;;;;;;0.90;0.90;;;22.40;49.10;;;;;;5097114;28;20072;-65
2022/07/10 11:46:29;;;;;;;0.70;0.70;;;22.30;48.70;;;;;;5097715;28;20086;-64
2022/07/10 11:48:58;;;;;;;1.33;0.80;;;22.30;49.10;;;;;;5097696;28;20035;-64
2022/07/10 11:51:25;;;;;;;1.63;0.90;;;22.20;49.40;;;;;;5097356;28;20463;-63
2022/07/10 11:54:00;;;;;;;3.53;0.82;;;22.30;49.50;;;;;;5097751;28;20036;-64
2022/07/10 11:56:28;;;;;;;1.67;0.90;;;22.30;49.70;;;;;;5097236;28;20051;-65
2022/07/10 11:59:02;;;;;;;3.17;0.90;;;22.30;49.20;;;;;;5081958;28;20043;-65
2022/07/10 12:01:32;;;;;;;2.28;1.10;;;22.30;50.00;;;;;;5099261;27;20054;-65
2022/07/10 12:04:02;;;;;;;1.00;0.80;;;22.30;49.50;;;;;;5077885;28;20099;-63
2022/07/10 12:06:28;;;;;;;0.85;0.82;;;22.40;49.90;;;;;;5098330;28;20023;-64
2022/07/10 12:08:54;;;;;;;0.70;0.70;;;22.40;49.60;;;;;;5099477;28;20449;-64
2022/07/10 12:11:21;;;;;;;0.98;0.85;;;22.40;49.40;;;;;;5097264;28;20065;-63
2022/07/10 12:13:51;;;;;;;3.38;0.70;;;22.40;49.00;;;;;;5099456;28;20051;-62
2022/07/10 12:16:17;;;;;;;1.45;0.88;;;22.50;48.60;;;;;;5099622;28;20048;-64
2022/07/10 12:18:45;;;;;;;2.15;0.70;;;22.60;49.00;;;;;;5098749;28;20028;-64
2022/07/10 12:21:12;;;;;;;1.20;0.80;;;22.60;47.80;;;;;;5099671;28;20043;-64
2022/07/10 12:23:40;;;;;;;0.75;0.75;;;22.60;48.00;;;;;;5099009;28;20047;-64
2022/07/10 12:26:10;;;;;;;1.05;0.90;;;22.60;47.70;;;;;;5098117;28;20537;-64
2022/07/10 12:28:58;;;;;;;1.73;0.95;;;22.70;48.00;;;;;;5099470;28;20032;-65
2022/07/10 12:31:26;;;;;;;2.20;0.80;;;22.60;46.70;;;;;;5083240;28;20032;-65
2022/07/10 12:33:59;;;;;;;1.45;0.80;;;22.60;47.10;;;;;;5098342;28;20028;-65
2022/07/10 12:36:25;;;;;;;1.83;0.80;;;22.60;47.00;;;;;;5097676;28;20050;-63
2022/07/10 12:38:57;;;;;;;2.38;0.82;;;22.60;46.90;;;;;;5097629;28;20556;-64
2022/07/10 12:41:24;;;;;;;1.60;1.00;;;22.50;47.50;;;;;;5097213;28;20036;-62
2022/07/10 12:43:51;;;;;;;1.75;1.20;;;22.50;47.70;;;;;;5099252;28;20044;-65
2022/07/10 12:46:20;;;;;;;1.65;0.98;;;22.50;48.40;;;;;;5080814;28;20398;-63
2022/07/10 12:49:03;;;;;;;1.50;0.90;;;22.50;48.10;;;;;;5097909;28;20055;-63
2022/07/10 12:51:31;;;;;;;1.17;0.90;;;22.50;46.00;;;;;;5098729;28;20047;-66
2022/07/10 12:53:57;;;;;;;1.02;0.80;;;22.60;47.70;;;;;;5097188;28;20505;-64
2022/07/10 12:56:35;;;;;;;1.35;0.80;;;22.70;47.20;;;;;;5099442;28;20036;-64
2022/07/10 12:59:03;;;;;;;0.90;0.70;;;22.70;46.30;;;;;;5097135;28;20556;-64
2022/07/10 13:01:40;;;;;;;0.73;0.60;;;22.70;46.60;;;;;;5098597;28;20511;-65